Newburgh, Indiana
Current Conditions -  °F | °C
As of 3:54 PM on Saturday 25 Oct 2014 (Local Time) from KEVV Reporting Station
Clear Clear  
Wind Chill: 79°   Ceiling: Unl
Heat Index: 79°   Visibility: 10mi
Dew Point: 51°   Wind: 6mph
Humidity: 38%   Direction: 300°WNW
Pressure: 29.98"   Gusts: NA
Location:  37.95°N, 87.4°W
Report Text: KEVV 252054Z 30005KT 10SM CLR 26/11 A2998 RMK AO2 SLP150 T02610106 55007
Loading
Personal Weather Stations






























Interactive Weather Map New forecast layout! Learn more

10-Day Weather Forecast

Advertisements
Track Severe Weather on mobile